sensor_id;sensor_type;location;lat;lon;timestamp;noise_LAeq;noise_LA_min;noise_LA_max;noise_LA01;noise_LA95
43787;Laerm;29409;49.306;8.500;2023-07-29T00:00:26;39.94;36.69;45.01;;
43787;Laerm;29409;49.306;8.500;2023-07-29T00:01:28;39.53;36.45;42.35;;
43787;Laerm;29409;49.306;8.500;2023-07-29T00:02:28;39.48;36.45;41.89;;
43787;Laerm;29409;49.306;8.500;2023-07-29T00:03:30;39.66;36.91;41.89;;
43787;Laerm;29409;49.306;8.500;2023-07-29T00:04:32;40.32;36.45;45.27;;
43787;Laerm;29409;49.306;8.500;2023-07-29T00:05:32;40.13;36.91;43.99;;
43787;Laerm;29409;49.306;8.500;2023-07-29T00:06:32;44.53;36.69;59.25;;
43787;Laerm;29409;49.306;8.500;2023-07-29T00:07:32;39.59;36.69;41.96;;
43787;Laerm;29409;49.306;8.500;2023-07-29T00:08:33;39.44;35.94;42.98;;
43787;Laerm;29409;49.306;8.500;2023-07-29T00:09:33;39.36;36.69;41.68;;
43787;Laerm;29409;49.306;8.500;2023-07-29T00:10:35;39.38;35.59;41.53;;
43787;Laerm;29409;49.306;8.500;2023-07-29T00:11:36;39.60;36.20;41.75;;
43787;Laerm;29409;49.306;8.500;2023-07-29T00:12:36;40.21;36.45;43.90;;
43787;Laerm;29409;49.306;8.500;2023-07-29T00:13:36;39.56;36.69;41.68;;
43787;Laerm;29409;49.306;8.500;2023-07-29T00:14:37;39.46;36.69;41.82;;
43787;Laerm;29409;49.306;8.500;2023-07-29T00:15:37;39.30;36.45;41.46;;
43787;Laerm;29409;49.306;8.500;2023-07-29T00:16:37;39.48;36.45;41.68;;
43787;Laerm;29409;49.306;8.500;2023-07-29T00:17:37;39.85;36.45;44.23;;
43787;Laerm;29409;49.306;8.500;2023-07-29T00:18:38;39.39;35.94;41.68;;
43787;Laerm;29409;49.306;8.500;2023-07-29T00:19:38;39.29;35.94;41.61;;
43787;Laerm;29409;49.306;8.500;2023-07-29T00:20:39;39.44;36.45;41.96;;
43787;Laerm;29409;49.306;8.500;2023-07-29T00:21:39;39.34;36.34;41.89;;
43787;Laerm;29409;49.306;8.500;2023-07-29T00:22:41;39.20;36.45;41.61;;
43787;Laerm;29409;49.306;8.500;2023-07-29T00:23:41;39.32;36.20;42.16;;
43787;Laerm;29409;49.306;8.500;2023-07-29T00:24:41;39.33;36.20;41.61;;
43787;Laerm;29409;49.306;8.500;2023-07-29T00:25:42;39.40;36.69;41.46;;
43787;Laerm;29409;49.306;8.500;2023-07-29T00:26:42;39.43;36.69;41.75;;
43787;Laerm;29409;49.306;8.500;2023-07-29T00:27:42;39.41;36.20;42.16;;
43787;Laerm;29409;49.306;8.500;2023-07-29T00:28:42;40.52;35.86;48.21;;
43787;Laerm;29409;49.306;8.500;2023-07-29T00:29:43;40.55;36.69;46.84;;
43787;Laerm;29409;49.306;8.500;2023-07-29T00:30:43;40.50;36.69;46.33;;
43787;Laerm;29409;49.306;8.500;2023-07-29T00:31:43;39.41;35.94;41.68;;
43787;Laerm;29409;49.306;8.500;2023-07-29T00:32:43;39.27;35.04;41.75;;
43787;Laerm;29409;49.306;8.500;2023-07-29T00:33:44;39.37;36.45;42.71;;
43787;Laerm;29409;49.306;8.500;2023-07-29T00:34:44;42.80;37.32;51.01;;
43787;Laerm;29409;49.306;8.500;2023-07-29T00:35:44;39.50;35.94;41.38;;
43787;Laerm;29409;49.306;8.500;2023-07-29T00:36:45;39.33;35.94;41.53;;
43787;Laerm;29409;49.306;8.500;2023-07-29T00:37:45;39.28;35.66;41.53;;
43787;Laerm;29409;49.306;8.500;2023-07-29T00:38:45;39.24;34.31;41.30;;
43787;Laerm;29409;49.306;8.500;2023-07-29T00:39:46;39.32;34.31;41.68;;
43787;Laerm;29409;49.306;8.500;2023-07-29T00:40:46;39.31;35.66;41.96;;
43787;Laerm;29409;49.306;8.500;2023-07-29T00:41:46;39.40;36.10;41.38;;
43787;Laerm;29409;49.306;8.500;2023-07-29T00:42:46;39.35;35.36;43.14;;
43787;Laerm;29409;49.306;8.500;2023-07-29T00:43:50;39.59;35.36;46.87;;
43787;Laerm;29409;49.306;8.500;2023-07-29T00:44:50;40.44;37.12;45.60;;
43787;Laerm;29409;49.306;8.500;2023-07-29T00:45:50;39.55;36.69;42.53;;
43787;Laerm;29409;49.306;8.500;2023-07-29T00:46:52;39.70;36.91;41.89;;
43787;Laerm;29409;49.306;8.500;2023-07-29T00:47:52;39.78;36.20;42.09;;
43787;Laerm;29409;49.306;8.500;2023-07-29T00:48:54;39.50;36.20;41.82;;
43787;Laerm;29409;49.306;8.500;2023-07-29T00:49:54;39.61;35.94;42.35;;
43787;Laerm;29409;49.306;8.500;2023-07-29T00:50:54;39.88;36.91;42.82;;
43787;Laerm;29409;49.306;8.500;2023-07-29T00:51:55;40.53;36.45;46.33;;
43787;Laerm;29409;49.306;8.500;2023-07-29T00:52:55;39.52;36.91;42.16;;
43787;Laerm;29409;49.306;8.500;2023-07-29T00:53:56;39.41;36.20;41.68;;
43787;Laerm;29409;49.306;8.500;2023-07-29T00:54:56;39.50;36.20;41.89;;
43787;Laerm;29409;49.306;8.500;2023-07-29T00:55:57;39.72;36.91;42.98;;
43787;Laerm;29409;49.306;8.500;2023-07-29T00:56:57;39.31;35.66;41.22;;
43787;Laerm;29409;49.306;8.500;2023-07-29T00:57:57;39.40;36.91;41.89;;
43787;Laerm;29409;49.306;8.500;2023-07-29T00:58:58;39.56;36.20;41.38;;
43787;Laerm;29409;49.306;8.500;2023-07-29T01:00:01;39.73;35.66;42.03;;
43787;Laerm;29409;49.306;8.500;2023-07-29T01:01:03;40.20;36.91;42.93;;
43787;Laerm;29409;49.306;8.500;2023-07-29T01:02:03;39.61;36.69;42.42;;
43787;Laerm;29409;49.306;8.500;2023-07-29T01:03:04;39.46;36.20;42.09;;
43787;Laerm;29409;49.306;8.500;2023-07-29T01:04:05;39.43;36.45;42.59;;
43787;Laerm;29409;49.306;8.500;2023-07-29T01:05:06;39.31;36.20;42.09;;
43787;Laerm;29409;49.306;8.500;2023-07-29T01:06:18;39.27;36.45;41.75;;
43787;Laerm;29409;49.306;8.500;2023-07-29T01:08:45;40.11;36.10;45.91;;
43787;Laerm;29409;49.306;8.500;2023-07-29T01:09:50;39.73;36.69;42.47;;
43787;Laerm;29409;49.306;8.500;2023-07-29T01:10:54;39.49;36.69;42.03;;
43787;Laerm;29409;49.306;8.500;2023-07-29T01:13:09;39.81;36.20;42.98;;
43787;Laerm;29409;49.306;8.500;2023-07-29T01:14:21;40.29;36.69;42.47;;
43787;Laerm;29409;49.306;8.500;2023-07-29T01:16:31;39.59;36.45;41.89;;
43787;Laerm;29409;49.306;8.500;2023-07-29T01:17:36;39.58;36.20;42.35;;
43787;Laerm;29409;49.306;8.500;2023-07-29T01:18:39;39.70;36.20;43.81;;
43787;Laerm;29409;49.306;8.500;2023-07-29T01:20:57;39.44;36.20;41.81;;
43787;Laerm;29409;49.306;8.500;2023-07-29T01:21:58;39.90;36.45;44.90;;
43787;Laerm;29409;49.306;8.500;2023-07-29T01:22:59;39.78;35.94;41.96;;
43787;Laerm;29409;49.306;8.500;2023-07-29T01:23:59;39.78;35.94;45.70;;
43787;Laerm;29409;49.306;8.500;2023-07-29T01:25:00;39.93;36.45;43.19;;
43787;Laerm;29409;49.306;8.500;2023-07-29T01:26:00;39.74;36.69;42.09;;
43787;Laerm;29409;49.306;8.500;2023-07-29T01:27:00;39.94;36.91;42.16;;
43787;Laerm;29409;49.306;8.500;2023-07-29T01:28:01;39.48;36.20;41.75;;
43787;Laerm;29409;49.306;8.500;2023-07-29T01:29:02;40.32;36.69;48.36;;
43787;Laerm;29409;49.306;8.500;2023-07-29T01:30:02;39.88;36.91;42.09;;
43787;Laerm;29409;49.306;8.500;2023-07-29T01:31:10;40.01;36.69;41.89;;
43787;Laerm;29409;49.306;8.500;2023-07-29T01:32:47;40.54;37.12;45.01;;
43787;Laerm;29409;49.306;8.500;2023-07-29T01:33:40;42.36;36.20;56.30;;
43787;Laerm;29409;49.306;8.500;2023-07-29T01:34:45;39.89;36.20;43.49;;
43787;Laerm;29409;49.306;8.500;2023-07-29T01:35:50;40.33;35.94;44.23;;
43787;Laerm;29409;49.306;8.500;2023-07-29T01:36:52;39.20;35.01;41.96;;
43787;Laerm;29409;49.306;8.500;2023-07-29T01:37:55;39.35;34.69;55.70;;
43787;Laerm;29409;49.306;8.500;2023-07-29T01:38:56;39.25;35.66;41.46;;
43787;Laerm;29409;49.306;8.500;2023-07-29T01:39:57;39.06;35.94;41.53;;
43787;Laerm;29409;49.306;8.500;2023-07-29T01:41:00;39.12;35.04;41.38;;
43787;Laerm;29409;49.306;8.500;2023-07-29T01:42:01;39.18;35.94;41.53;;
43787;Laerm;29409;49.306;8.500;2023-07-29T01:43:02;43.20;36.69;58.96;;
43787;Laerm;29409;49.306;8.500;2023-07-29T01:44:02;44.07;41.06;58.75;;
43787;Laerm;29409;49.306;8.500;2023-07-29T01:45:03;43.54;36.91;55.04;;
43787;Laerm;29409;49.306;8.500;2023-07-29T01:46:04;39.83;35.66;41.89;;
43787;Laerm;29409;49.306;8.500;2023-07-29T01:47:04;39.46;35.94;42.93;;
43787;Laerm;29409;49.306;8.500;2023-07-29T01:48:05;39.76;36.20;42.35;;
43787;Laerm;29409;49.306;8.500;2023-07-29T01:49:06;39.84;36.20;42.47;;
43787;Laerm;29409;49.306;8.500;2023-07-29T01:50:06;39.65;35.36;41.89;;
43787;Laerm;29409;49.306;8.500;2023-07-29T01:51:07;40.05;36.56;42.42;;
43787;Laerm;29409;49.306;8.500;2023-07-29T01:52:07;39.95;37.12;42.41;;
43787;Laerm;29409;49.306;8.500;2023-07-29T01:53:07;40.27;36.91;43.81;;
43787;Laerm;29409;49.306;8.500;2023-07-29T01:54:08;40.03;37.32;45.14;;
43787;Laerm;29409;49.306;8.500;2023-07-29T01:55:08;39.79;37.32;50.68;;
43787;Laerm;29409;49.306;8.500;2023-07-29T01:56:08;39.64;36.56;42.35;;
43787;Laerm;29409;49.306;8.500;2023-07-29T01:57:09;40.15;36.91;44.51;;
43787;Laerm;29409;49.306;8.500;2023-07-29T01:58:09;39.61;36.69;43.86;;
43787;Laerm;29409;49.306;8.500;2023-07-29T01:59:09;39.62;36.20;41.82;;
43787;Laerm;29409;49.306;8.500;2023-07-29T02:00:10;39.75;36.91;42.71;;
43787;Laerm;29409;49.306;8.500;2023-07-29T02:01:10;40.17;36.69;43.09;;
43787;Laerm;29409;49.306;8.500;2023-07-29T02:02:10;40.07;35.94;45.86;;
43787;Laerm;29409;49.306;8.500;2023-07-29T02:03:11;39.63;36.69;43.68;;
43787;Laerm;29409;49.306;8.500;2023-07-29T02:04:11;40.31;37.70;42.47;;
43787;Laerm;29409;49.306;8.500;2023-07-29T02:05:12;41.98;38.05;49.56;;
43787;Laerm;29409;49.306;8.500;2023-07-29T02:06:13;40.42;36.91;44.51;;
43787;Laerm;29409;49.306;8.500;2023-07-29T02:07:14;40.76;37.12;44.56;;
43787;Laerm;29409;49.306;8.500;2023-07-29T02:08:14;40.05;36.91;44.27;;
43787;Laerm;29409;49.306;8.500;2023-07-29T02:09:14;40.06;37.12;42.35;;
43787;Laerm;29409;49.306;8.500;2023-07-29T02:10:15;39.95;36.34;42.09;;
43787;Laerm;29409;49.306;8.500;2023-07-29T02:11:16;39.78;35.36;42.22;;
43787;Laerm;29409;49.306;8.500;2023-07-29T02:12:16;39.52;36.45;41.53;;
43787;Laerm;29409;49.306;8.500;2023-07-29T02:13:17;39.34;36.20;41.61;;
43787;Laerm;29409;49.306;8.500;2023-07-29T02:14:17;39.69;36.45;42.03;;
43787;Laerm;29409;49.306;8.500;2023-07-29T02:15:17;39.96;37.12;42.71;;
43787;Laerm;29409;49.306;8.500;2023-07-29T02:16:17;40.01;36.69;42.59;;
43787;Laerm;29409;49.306;8.500;2023-07-29T02:17:19;39.90;36.45;42.09;;
43787;Laerm;29409;49.306;8.500;2023-07-29T02:18:19;40.19;36.91;47.32;;
43787;Laerm;29409;49.306;8.500;2023-07-29T02:19:20;39.60;36.45;42.76;;
43787;Laerm;29409;49.306;8.500;2023-07-29T02:20:20;39.66;36.20;42.03;;
43787;Laerm;29409;49.306;8.500;2023-07-29T02:21:20;39.55;36.20;41.53;;
43787;Laerm;29409;49.306;8.500;2023-07-29T02:22:20;39.83;36.56;41.96;;
43787;Laerm;29409;49.306;8.500;2023-07-29T02:23:21;39.48;36.45;41.89;;
43787;Laerm;29409;49.306;8.500;2023-07-29T02:24:21;39.59;36.45;42.29;;
43787;Laerm;29409;49.306;8.500;2023-07-29T02:25:22;39.79;35.94;41.96;;
43787;Laerm;29409;49.306;8.500;2023-07-29T02:26:22;39.64;36.45;43.09;;
43787;Laerm;29409;49.306;8.500;2023-07-29T02:27:22;39.50;35.86;42.59;;
43787;Laerm;29409;49.306;8.500;2023-07-29T02:28:26;39.44;35.94;41.53;;
43787;Laerm;29409;49.306;8.500;2023-07-29T02:29:26;39.39;35.36;41.89;;
43787;Laerm;29409;49.306;8.500;2023-07-29T02:30:26;39.48;36.20;41.61;;
43787;Laerm;29409;49.306;8.500;2023-07-29T02:31:27;39.80;35.36;44.19;;
43787;Laerm;29409;49.306;8.500;2023-07-29T02:32:27;39.58;36.45;41.89;;
43787;Laerm;29409;49.306;8.500;2023-07-29T02:33:28;39.75;36.45;42.53;;
43787;Laerm;29409;49.306;8.500;2023-07-29T02:34:28;39.63;36.20;41.82;;
43787;Laerm;29409;49.306;8.500;2023-07-29T02:35:28;39.72;36.20;41.82;;
43787;Laerm;29409;49.306;8.500;2023-07-29T02:36:29;40.10;36.91;42.47;;
43787;Laerm;29409;49.306;8.500;2023-07-29T02:37:29;39.96;37.12;42.09;;
43787;Laerm;29409;49.306;8.500;2023-07-29T02:38:29;39.90;36.91;42.03;;
43787;Laerm;29409;49.306;8.500;2023-07-29T02:39:29;39.90;36.69;42.16;;
43787;Laerm;29409;49.306;8.500;2023-07-29T02:40:30;40.30;36.91;42.35;;
43787;Laerm;29409;49.306;8.500;2023-07-29T02:41:30;40.93;37.88;43.29;;
43787;Laerm;29409;49.306;8.500;2023-07-29T02:42:30;40.59;37.52;42.53;;
43787;Laerm;29409;49.306;8.500;2023-07-29T02:43:31;40.55;37.32;42.47;;
43787;Laerm;29409;49.306;8.500;2023-07-29T02:44:33;39.89;36.20;42.22;;
43787;Laerm;29409;49.306;8.500;2023-07-29T02:45:33;39.72;36.45;41.96;;
43787;Laerm;29409;49.306;8.500;2023-07-29T02:46:33;40.20;36.91;42.71;;
43787;Laerm;29409;49.306;8.500;2023-07-29T02:47:36;40.11;37.12;42.71;;
43787;Laerm;29409;49.306;8.500;2023-07-29T02:48:36;40.14;37.12;42.53;;
43787;Laerm;29409;49.306;8.500;2023-07-29T02:49:37;39.96;36.91;42.16;;
43787;Laerm;29409;49.306;8.500;2023-07-29T02:50:37;40.03;36.20;42.29;;
43787;Laerm;29409;49.306;8.500;2023-07-29T02:51:37;40.25;37.52;42.47;;
43787;Laerm;29409;49.306;8.500;2023-07-29T02:52:39;40.26;37.32;42.65;;
43787;Laerm;29409;49.306;8.500;2023-07-29T02:53:39;40.16;36.56;42.76;;
43787;Laerm;29409;49.306;8.500;2023-07-29T02:54:39;40.96;36.69;46.40;;
43787;Laerm;29409;49.306;8.500;2023-07-29T02:55:40;40.34;37.70;42.74;;
43787;Laerm;29409;49.306;8.500;2023-07-29T02:56:40;40.61;37.88;44.69;;
43787;Laerm;29409;49.306;8.500;2023-07-29T02:57:41;40.37;37.32;42.59;;
43787;Laerm;29409;49.306;8.500;2023-07-29T02:58:42;40.32;37.52;43.28;;
43787;Laerm;29409;49.306;8.500;2023-07-29T02:59:43;40.49;37.12;43.44;;
43787;Laerm;29409;49.306;8.500;2023-07-29T03:00:43;41.41;38.05;45.11;;
43787;Laerm;29409;49.306;8.500;2023-07-29T03:01:44;40.59;37.52;42.71;;
43787;Laerm;29409;49.306;8.500;2023-07-29T03:02:44;40.31;37.88;42.41;;
43787;Laerm;29409;49.306;8.500;2023-07-29T03:03:44;40.56;37.12;43.37;;
43787;Laerm;29409;49.306;8.500;2023-07-29T03:04:45;40.53;37.70;42.29;;
43787;Laerm;29409;49.306;8.500;2023-07-29T03:05:45;40.23;37.12;42.76;;
43787;Laerm;29409;49.306;8.500;2023-07-29T03:06:45;40.39;36.91;43.68;;
43787;Laerm;29409;49.306;8.500;2023-07-29T03:07:47;40.82;37.52;43.19;;
43787;Laerm;29409;49.306;8.500;2023-07-29T03:08:48;40.76;37.52;43.09;;
43787;Laerm;29409;49.306;8.500;2023-07-29T03:09:48;40.96;37.52;43.68;;
43787;Laerm;29409;49.306;8.500;2023-07-29T03:10:48;42.93;39.34;47.79;;
43787;Laerm;29409;49.306;8.500;2023-07-29T03:11:48;42.02;38.52;45.51;;
43787;Laerm;29409;49.306;8.500;2023-07-29T03:12:49;41.19;36.20;45.04;;
43787;Laerm;29409;49.306;8.500;2023-07-29T03:13:49;40.54;37.52;42.58;;
43787;Laerm;29409;49.306;8.500;2023-07-29T03:14:50;40.88;36.20;45.80;;
43787;Laerm;29409;49.306;8.500;2023-07-29T03:15:51;40.80;38.05;44.23;;
43787;Laerm;29409;49.306;8.500;2023-07-29T03:16:52;40.26;37.52;43.29;;
43787;Laerm;29409;49.306;8.500;2023-07-29T03:17:52;41.08;37.32;45.63;;
43787;Laerm;29409;49.306;8.500;2023-07-29T03:18:52;42.43;38.95;44.83;;
43787;Laerm;29409;49.306;8.500;2023-07-29T03:19:53;41.29;37.70;43.86;;
43787;Laerm;29409;49.306;8.500;2023-07-29T03:20:55;41.02;37.70;43.68;;
43787;Laerm;29409;49.306;8.500;2023-07-29T03:21:55;40.99;38.05;53.32;;
43787;Laerm;29409;49.306;8.500;2023-07-29T03:22:58;41.78;38.37;44.83;;
43787;Laerm;29409;49.306;8.500;2023-07-29T03:23:58;41.30;38.21;44.58;;
43787;Laerm;29409;49.306;8.500;2023-07-29T03:25:00;43.00;38.21;49.44;;
43787;Laerm;29409;49.306;8.500;2023-07-29T03:26:00;41.79;38.37;48.87;;
43787;Laerm;29409;49.306;8.500;2023-07-29T03:27:01;40.84;38.05;43.49;;
43787;Laerm;29409;49.306;8.500;2023-07-29T03:28:01;40.44;37.52;42.53;;
43787;Laerm;29409;49.306;8.500;2023-07-29T03:29:01;40.54;37.88;42.36;;
43787;Laerm;29409;49.306;8.500;2023-07-29T03:30:02;41.28;37.52;47.24;;
43787;Laerm;29409;49.306;8.500;2023-07-29T03:31:02;40.76;37.12;45.30;;
43787;Laerm;29409;49.306;8.500;2023-07-29T03:32:04;41.02;37.12;49.32;;
43787;Laerm;29409;49.306;8.500;2023-07-29T03:33:05;40.17;37.12;42.41;;
43787;Laerm;29409;49.306;8.500;2023-07-29T03:34:05;41.61;37.53;53.18;;
43787;Laerm;29409;49.306;8.500;2023-07-29T03:35:05;40.46;37.32;44.39;;
43787;Laerm;29409;49.306;8.500;2023-07-29T03:36:06;40.57;37.32;43.09;;
43787;Laerm;29409;49.306;8.500;2023-07-29T03:37:06;40.65;37.70;42.98;;
43787;Laerm;29409;49.306;8.500;2023-07-29T03:38:06;42.40;38.37;49.58;;
43787;Laerm;29409;49.306;8.500;2023-07-29T03:39:08;41.15;37.32;47.08;;
43787;Laerm;29409;49.306;8.500;2023-07-29T03:40:09;40.36;37.12;42.88;;
43787;Laerm;29409;49.306;8.500;2023-07-29T03:41:09;46.43;37.70;63.20;;
43787;Laerm;29409;49.306;8.500;2023-07-29T03:42:10;42.00;39.21;46.87;;
43787;Laerm;29409;49.306;8.500;2023-07-29T03:43:11;42.79;37.32;48.18;;
43787;Laerm;29409;49.306;8.500;2023-07-29T03:44:11;42.02;38.52;46.23;;
43787;Laerm;29409;49.306;8.500;2023-07-29T03:45:11;41.34;37.88;45.54;;
43787;Laerm;29409;49.306;8.500;2023-07-29T03:46:11;41.81;38.52;46.05;;
43787;Laerm;29409;49.306;8.500;2023-07-29T03:47:13;41.94;38.37;48.03;;
43787;Laerm;29409;49.306;8.500;2023-07-29T03:48:13;41.39;37.52;45.97;;
43787;Laerm;29409;49.306;8.500;2023-07-29T03:49:13;41.54;37.88;48.37;;
43787;Laerm;29409;49.306;8.500;2023-07-29T03:50:14;42.67;38.37;49.07;;
43787;Laerm;29409;49.306;8.500;2023-07-29T03:51:14;41.96;38.02;52.87;;
43787;Laerm;29409;49.306;8.500;2023-07-29T03:52:14;45.40;38.37;56.28;;
43787;Laerm;29409;49.306;8.500;2023-07-29T03:53:15;42.06;37.70;52.15;;
43787;Laerm;29409;49.306;8.500;2023-07-29T03:54:15;42.60;36.20;50.21;;
43787;Laerm;29409;49.306;8.500;2023-07-29T03:55:16;41.71;37.70;48.92;;
43787;Laerm;29409;49.306;8.500;2023-07-29T03:56:17;41.19;37.12;46.59;;
43787;Laerm;29409;49.306;8.500;2023-07-29T03:57:17;41.07;37.88;47.68;;
43787;Laerm;29409;49.306;8.500;2023-07-29T03:58:20;40.79;37.88;44.83;;
43787;Laerm;29409;49.306;8.500;2023-07-29T03:59:22;40.88;37.70;44.90;;
43787;Laerm;29409;49.306;8.500;2023-07-29T04:00:23;40.63;37.12;45.11;;
43787;Laerm;29409;49.306;8.500;2023-07-29T04:01:23;41.82;37.88;50.89;;
43787;Laerm;29409;49.306;8.500;2023-07-29T04:02:24;41.65;38.37;44.80;;
43787;Laerm;29409;49.306;8.500;2023-07-29T04:03:24;45.32;38.67;55.17;;
43787;Laerm;29409;49.306;8.500;2023-07-29T04:04:24;40.70;36.91;44.11;;
43787;Laerm;29409;49.306;8.500;2023-07-29T04:05:24;40.63;37.12;43.99;;
43787;Laerm;29409;49.306;8.500;2023-07-29T04:06:26;40.47;36.69;43.90;;
43787;Laerm;29409;49.306;8.500;2023-07-29T04:07:27;40.79;37.12;49.24;;
43787;Laerm;29409;49.306;8.500;2023-07-29T04:08:28;40.77;36.91;53.28;;
43787;Laerm;29409;49.306;8.500;2023-07-29T04:09:28;40.60;37.32;46.89;;
43787;Laerm;29409;49.306;8.500;2023-07-29T04:10:28;40.36;37.12;42.71;;
43787;Laerm;29409;49.306;8.500;2023-07-29T04:11:31;41.00;37.12;46.43;;
43787;Laerm;29409;49.306;8.500;2023-07-29T04:12:31;41.10;37.53;44.31;;
43787;Laerm;29409;49.306;8.500;2023-07-29T04:13:33;41.63;38.05;48.87;;
43787;Laerm;29409;49.306;8.500;2023-07-29T04:14:34;42.65;38.52;46.15;;
43787;Laerm;29409;49.306;8.500;2023-07-29T04:15:34;41.81;38.81;46.23;;
43787;Laerm;29409;49.306;8.500;2023-07-29T04:16:35;40.68;37.88;43.49;;
43787;Laerm;29409;49.306;8.500;2023-07-29T04:17:36;40.92;37.12;53.56;;
43787;Laerm;29409;49.306;8.500;2023-07-29T04:18:36;40.61;37.70;42.47;;
43787;Laerm;29409;49.306;8.500;2023-07-29T04:19:36;40.61;37.70;44.43;;
43787;Laerm;29409;49.306;8.500;2023-07-29T04:20:37;40.54;37.12;43.19;;
43787;Laerm;29409;49.306;8.500;2023-07-29T04:21:37;40.89;37.52;45.54;;
43787;Laerm;29409;49.306;8.500;2023-07-29T04:22:37;40.94;38.05;44.51;;
43787;Laerm;29409;49.306;8.500;2023-07-29T04:23:37;40.69;37.52;44.15;;
43787;Laerm;29409;49.306;8.500;2023-07-29T04:24:38;40.96;37.88;47.67;;
43787;Laerm;29409;49.306;8.500;2023-07-29T04:25:39;40.27;37.12;44.47;;
43787;Laerm;29409;49.306;8.500;2023-07-29T04:26:39;41.59;39.58;50.66;;
43787;Laerm;29409;49.306;8.500;2023-07-29T04:27:40;41.83;39.46;50.69;;
43787;Laerm;29409;49.306;8.500;2023-07-29T04:28:41;42.26;39.08;51.80;;
43787;Laerm;29409;49.306;8.500;2023-07-29T04:29:42;41.76;38.60;54.00;;
43787;Laerm;29409;49.306;8.500;2023-07-29T04:30:43;40.79;38.21;51.19;;
43787;Laerm;29409;49.306;8.500;2023-07-29T04:31:44;48.53;36.20;70.98;;
43787;Laerm;29409;49.306;8.500;2023-07-29T04:32:45;40.80;37.12;51.51;;
43787;Laerm;29409;49.306;8.500;2023-07-29T04:33:48;40.86;37.52;49.50;;
43787;Laerm;29409;49.306;8.500;2023-07-29T04:34:48;42.59;39.58;55.33;;
43787;Laerm;29409;49.306;8.500;2023-07-29T04:35:49;43.67;39.70;55.51;;
43787;Laerm;29409;49.306;8.500;2023-07-29T04:36:49;44.58;40.98;68.62;;
43787;Laerm;29409;49.306;8.500;2023-07-29T04:37:49;45.54;43.63;55.75;;
43787;Laerm;29409;49.306;8.500;2023-07-29T04:38:50;49.52;43.63;72.32;;
43787;Laerm;29409;49.306;8.500;2023-07-29T04:39:50;54.97;44.39;71.51;;
43787;Laerm;29409;49.306;8.500;2023-07-29T04:40:50;52.53;48.90;59.92;;
43787;Laerm;29409;49.306;8.500;2023-07-29T04:41:50;54.34;51.19;60.36;;
43787;Laerm;29409;49.306;8.500;2023-07-29T04:42:51;62.10;54.27;77.77;;
43787;Laerm;29409;49.306;8.500;2023-07-29T04:43:52;61.22;56.41;65.53;;
43787;Laerm;29409;49.306;8.500;2023-07-29T04:44:53;58.53;53.83;62.03;;
43787;Laerm;29409;49.306;8.500;2023-07-29T04:45:53;62.28;47.86;82.54;;
43787;Laerm;29409;49.306;8.500;2023-07-29T04:46:54;47.28;44.27;55.27;;
43787;Laerm;29409;49.306;8.500;2023-07-29T04:47:54;44.23;42.22;51.97;;
43787;Laerm;29409;49.306;8.500;2023-07-29T04:48:55;46.20;42.76;58.12;;
43787;Laerm;29409;49.306;8.500;2023-07-29T04:49:55;46.65;43.63;56.45;;
43787;Laerm;29409;49.306;8.500;2023-07-29T04:50:55;44.20;40.88;52.77;;
43787;Laerm;29409;49.306;8.500;2023-07-29T04:51:56;45.72;39.70;59.94;;
43787;Laerm;29409;49.306;8.500;2023-07-29T04:52:56;41.46;38.67;49.66;;
43787;Laerm;29409;49.306;8.500;2023-07-29T04:53:57;42.53;38.81;51.30;;
43787;Laerm;29409;49.306;8.500;2023-07-29T04:54:57;41.80;38.21;49.65;;
43787;Laerm;29409;49.306;8.500;2023-07-29T04:55:58;41.30;37.88;53.04;;
43787;Laerm;29409;49.306;8.500;2023-07-29T04:56:58;41.43;38.37;50.91;;
43787;Laerm;29409;49.306;8.500;2023-07-29T04:57:59;40.72;37.70;45.94;;
43787;Laerm;29409;49.306;8.500;2023-07-29T04:59:01;41.32;38.37;44.31;;
43787;Laerm;29409;49.306;8.500;2023-07-29T05:00:02;41.10;37.52;45.04;;
43787;Laerm;29409;49.306;8.500;2023-07-29T05:01:03;41.60;38.37;47.70;;
43787;Laerm;29409;49.306;8.500;2023-07-29T05:02:03;40.75;38.21;45.57;;
43787;Laerm;29409;49.306;8.500;2023-07-29T05:03:05;41.68;37.88;47.44;;
43787;Laerm;29409;49.306;8.500;2023-07-29T05:04:06;40.63;37.32;46.15;;
43787;Laerm;29409;49.306;8.500;2023-07-29T05:05:06;40.87;38.37;46.97;;
43787;Laerm;29409;49.306;8.500;2023-07-29T05:06:08;43.35;38.05;55.48;;
43787;Laerm;29409;49.306;8.500;2023-07-29T05:07:10;44.76;39.70;55.52;;
43787;Laerm;29409;49.306;8.500;2023-07-29T05:08:10;41.93;38.81;46.02;;
43787;Laerm;29409;49.306;8.500;2023-07-29T05:09:14;42.05;38.95;50.06;;
43787;Laerm;29409;49.306;8.500;2023-07-29T05:10:16;42.10;38.37;47.00;;
43787;Laerm;29409;49.306;8.500;2023-07-29T05:11:16;42.43;38.81;48.60;;
43787;Laerm;29409;49.306;8.500;2023-07-29T05:12:19;41.20;37.88;47.04;;
43787;Laerm;29409;49.306;8.500;2023-07-29T05:13:20;41.30;38.37;49.14;;
43787;Laerm;29409;49.306;8.500;2023-07-29T05:14:21;41.31;37.12;46.95;;
43787;Laerm;29409;49.306;8.500;2023-07-29T05:15:24;41.34;37.70;46.38;;
43787;Laerm;29409;49.306;8.500;2023-07-29T05:16:25;41.01;37.87;48.58;;
43787;Laerm;29409;49.306;8.500;2023-07-29T05:17:25;40.45;37.52;48.37;;
43787;Laerm;29409;49.306;8.500;2023-07-29T05:18:25;40.14;37.70;43.49;;
43787;Laerm;29409;49.306;8.500;2023-07-29T05:19:26;43.12;37.52;61.74;;
43787;Laerm;29409;49.306;8.500;2023-07-29T05:20:27;40.75;36.91;48.64;;
43787;Laerm;29409;49.306;8.500;2023-07-29T05:21:28;40.09;36.91;43.63;;
43787;Laerm;29409;49.306;8.500;2023-07-29T05:22:28;40.89;37.12;45.86;;
43787;Laerm;29409;49.306;8.500;2023-07-29T05:23:29;42.99;38.05;51.87;;
43787;Laerm;29409;49.306;8.500;2023-07-29T05:24:30;44.75;37.70;53.97;;
43787;Laerm;29409;49.306;8.500;2023-07-29T05:25:30;43.12;36.69;53.42;;
43787;Laerm;29409;49.306;8.500;2023-07-29T05:26:30;41.28;37.32;54.80;;
43787;Laerm;29409;49.306;8.500;2023-07-29T05:27:31;42.20;37.12;58.03;;
43787;Laerm;29409;49.306;8.500;2023-07-29T05:28:32;40.76;37.70;44.58;;
43787;Laerm;29409;49.306;8.500;2023-07-29T05:29:35;45.01;39.08;53.52;;
43787;Laerm;29409;49.306;8.500;2023-07-29T05:30:36;58.23;49.82;71.24;;
43787;Laerm;29409;49.306;8.500;2023-07-29T05:31:40;57.80;52.28;64.69;;
43787;Laerm;29409;49.306;8.500;2023-07-29T05:32:41;58.66;54.68;61.38;;
43787;Laerm;29409;49.306;8.500;2023-07-29T05:33:43;56.75;49.62;61.18;;
43787;Laerm;29409;49.306;8.500;2023-07-29T05:34:43;55.87;49.72;60.84;;
43787;Laerm;29409;49.306;8.500;2023-07-29T05:35:43;54.63;46.40;67.83;;
43787;Laerm;29409;49.306;8.500;2023-07-29T05:36:44;48.45;44.69;60.88;;
43787;Laerm;29409;49.306;8.500;2023-07-29T05:37:44;47.48;41.75;58.23;;
43787;Laerm;29409;49.306;8.500;2023-07-29T05:38:46;42.23;40.53;49.62;;
43787;Laerm;29409;49.306;8.500;2023-07-29T05:39:47;42.22;39.34;49.78;;
43787;Laerm;29409;49.306;8.500;2023-07-29T05:40:48;41.81;38.95;47.67;;
43787;Laerm;29409;49.306;8.500;2023-07-29T05:41:48;42.81;39.21;50.02;;
43787;Laerm;29409;49.306;8.500;2023-07-29T05:42:48;40.97;37.70;50.39;;
43787;Laerm;29409;49.306;8.500;2023-07-29T05:43:49;44.52;38.67;53.31;;
43787;Laerm;29409;49.306;8.500;2023-07-29T05:44:49;41.97;38.37;47.63;;
43787;Laerm;29409;49.306;8.500;2023-07-29T05:45:52;41.27;38.05;51.65;;